Ida, Louisiana
Current Conditions -  °F | °C
As of 1:53 PM on Sunday 21 Dec 2014 (Local Time) from KTXK Reporting Station
Clear Clear  
Wind Chill: 55°   Ceiling: Unl
Heat Index: 55°   Visibility: 10mi
Dew Point: 42°   Wind: 10mph
Humidity: 62%   Direction: 170°S
Pressure: 29.98"   Gusts: NA
Location:  33°N, 93.89°W
Report Text: KTXK 211953Z 17009KT 10SM CLR 13/06 A2998 RMK AO2 PRESFR SLP151 T01280056
Loading
Personal Weather Stations






























Interactive Weather Map New forecast layout! Learn more

10-Day Weather Forecast

Advertisements
Track Severe Weather on mobile